Back to top

Casper, Wyoming Weather

Natrona County International Airport, Casper, WY: 10/16/2018 03:53
Visibility10 statute milesclear sky
View 7-Day Forecast
Area Summary
Sky/CloudsSky Clear
Weather [last 24 hours]None
Pressure30.36 in.Hg (1028 hPa)
Dew Point23 °F (-5 °C)
Relative Humidity81.1 %
Temperature28 °F (-2.2 °C)red thermometer
Wind Chill20.7 °F (-6.25 °C)
Reading TimeMinimum to Maximum Temperature
6-hr ending 10/15@23:5328.9 °F to 41 °F (-1.7 °C to 5 °C)
6-hr ending 10/15@17:5336 °F to 46 °F (2.2 °C to 7.8 °C)
6-hr ending 10/15@11:5319 °F to 37 °F (-7.2 °C to 2.8 °C)
6-hr ending 10/15@05:5317.1 °F to 21 °F (-8.3 °C to -6.1 °C)
24-hr ending 10/16@00:5317.1 °F to 46 °F (-8.3 °C to 7.8 °C)
Wind6.9 MPH (6 KT) green arrow pointing 247.5 degrees
Wind FromWest/Southwest (250 Degrees)
Twilight Begins06:53Sunshine Yesterday
Sunrise07:22N/A
Sunset18:20
Twilight Ends18:49
METARKCPR 160953Z AUTO 25006KT 10SM CLR M02/M05 A3036 RMK AO2 SLP290 T10221050